sensor_id;sensor_type;location;lat;lon;timestamp;P1;durP1;ratioP1;P2;durP2;ratioP2
3333;SDS011;1679;50.392;8.008;2023-02-11T00:01:46;57.63;;;30.67;;
3333;SDS011;1679;50.392;8.008;2023-02-11T00:04:12;53.70;;;29.90;;
3333;SDS011;1679;50.392;8.008;2023-02-11T00:06:38;57.20;;;31.37;;
3333;SDS011;1679;50.392;8.008;2023-02-11T00:09:03;55.23;;;31.20;;
3333;SDS011;1679;50.392;8.008;2023-02-11T00:11:29;51.87;;;30.53;;
3333;SDS011;1679;50.392;8.008;2023-02-11T00:13:59;53.23;;;29.80;;
3333;SDS011;1679;50.392;8.008;2023-02-11T00:16:26;52.73;;;29.30;;
3333;SDS011;1679;50.392;8.008;2023-02-11T00:18:53;43.43;;;27.53;;
3333;SDS011;1679;50.392;8.008;2023-02-11T00:21:21;49.57;;;28.70;;
3333;SDS011;1679;50.392;8.008;2023-02-11T00:23:48;47.03;;;28.13;;
3333;SDS011;1679;50.392;8.008;2023-02-11T00:26:18;50.63;;;29.50;;
3333;SDS011;1679;50.392;8.008;2023-02-11T00:28:46;46.10;;;28.03;;
3333;SDS011;1679;50.392;8.008;2023-02-11T00:31:13;46.50;;;27.67;;
3333;SDS011;1679;50.392;8.008;2023-02-11T00:33:40;49.70;;;30.00;;
3333;SDS011;1679;50.392;8.008;2023-02-11T00:36:06;51.97;;;29.50;;
3333;SDS011;1679;50.392;8.008;2023-02-11T00:38:33;48.07;;;28.47;;
3333;SDS011;1679;50.392;8.008;2023-02-11T00:40:59;51.60;;;29.23;;
3333;SDS011;1679;50.392;8.008;2023-02-11T00:43:25;57.37;;;30.17;;
3333;SDS011;1679;50.392;8.008;2023-02-11T00:45:50;49.77;;;28.67;;
3333;SDS011;1679;50.392;8.008;2023-02-11T00:48:16;48.27;;;29.83;;
3333;SDS011;1679;50.392;8.008;2023-02-11T00:50:41;46.60;;;28.17;;
3333;SDS011;1679;50.392;8.008;2023-02-11T00:53:07;45.43;;;28.87;;
3333;SDS011;1679;50.392;8.008;2023-02-11T00:55:32;39.73;;;26.70;;
3333;SDS011;1679;50.392;8.008;2023-02-11T00:57:58;49.03;;;30.33;;
3333;SDS011;1679;50.392;8.008;2023-02-11T01:00:24;48.30;;;28.50;;
3333;SDS011;1679;50.392;8.008;2023-02-11T01:02:50;46.93;;;27.37;;
3333;SDS011;1679;50.392;8.008;2023-02-11T01:05:16;51.73;;;28.50;;
3333;SDS011;1679;50.392;8.008;2023-02-11T01:07:42;49.87;;;29.67;;
3333;SDS011;1679;50.392;8.008;2023-02-11T01:10:07;46.57;;;27.77;;
3333;SDS011;1679;50.392;8.008;2023-02-11T01:12:34;48.93;;;31.03;;
3333;SDS011;1679;50.392;8.008;2023-02-11T01:14:59;47.67;;;29.57;;
3333;SDS011;1679;50.392;8.008;2023-02-11T01:17:25;52.93;;;28.40;;
3333;SDS011;1679;50.392;8.008;2023-02-11T01:19:50;48.53;;;29.40;;
3333;SDS011;1679;50.392;8.008;2023-02-11T01:22:16;51.87;;;29.03;;
3333;SDS011;1679;50.392;8.008;2023-02-11T01:24:41;43.37;;;27.90;;
3333;SDS011;1679;50.392;8.008;2023-02-11T01:27:07;45.37;;;28.17;;
3333;SDS011;1679;50.392;8.008;2023-02-11T01:29:32;46.60;;;27.60;;
3333;SDS011;1679;50.392;8.008;2023-02-11T01:31:59;46.53;;;28.17;;
3333;SDS011;1679;50.392;8.008;2023-02-11T01:34:24;46.80;;;28.07;;
3333;SDS011;1679;50.392;8.008;2023-02-11T01:36:55;50.20;;;28.80;;
3333;SDS011;1679;50.392;8.008;2023-02-11T01:39:22;45.23;;;28.07;;
3333;SDS011;1679;50.392;8.008;2023-02-11T01:41:48;43.67;;;28.60;;
3333;SDS011;1679;50.392;8.008;2023-02-11T01:44:29;44.90;;;28.23;;
3333;SDS011;1679;50.392;8.008;2023-02-11T01:47:02;44.67;;;28.17;;
3333;SDS011;1679;50.392;8.008;2023-02-11T01:49:30;48.07;;;28.37;;
3333;SDS011;1679;50.392;8.008;2023-02-11T01:54:41;47.37;;;29.60;;
3333;SDS011;1679;50.392;8.008;2023-02-11T01:57:30;47.60;;;27.20;;
3333;SDS011;1679;50.392;8.008;2023-02-11T02:10:49;43.67;;;26.53;;
3333;SDS011;1679;50.392;8.008;2023-02-11T02:13:18;45.97;;;28.30;;
3333;SDS011;1679;50.392;8.008;2023-02-11T02:15:46;47.03;;;28.20;;
3333;SDS011;1679;50.392;8.008;2023-02-11T02:21:28;46.80;;;28.80;;
3333;SDS011;1679;50.392;8.008;2023-02-11T02:24:03;51.37;;;29.67;;
3333;SDS011;1679;50.392;8.008;2023-02-11T02:35:14;45.87;;;27.40;;
3333;SDS011;1679;50.392;8.008;2023-02-11T02:40:48;47.63;;;27.13;;
3333;SDS011;1679;50.392;8.008;2023-02-11T02:43:19;45.97;;;26.10;;
3333;SDS011;1679;50.392;8.008;2023-02-11T02:45:46;50.60;;;29.13;;
3333;SDS011;1679;50.392;8.008;2023-02-11T02:48:24;51.23;;;28.20;;
3333;SDS011;1679;50.392;8.008;2023-02-11T02:50:58;50.37;;;28.97;;
3333;SDS011;1679;50.392;8.008;2023-02-11T02:56:08;44.73;;;27.30;;
3333;SDS011;1679;50.392;8.008;2023-02-11T02:59:00;53.07;;;28.20;;
3333;SDS011;1679;50.392;8.008;2023-02-11T03:01:38;47.00;;;27.80;;
3333;SDS011;1679;50.392;8.008;2023-02-11T03:04:22;42.80;;;26.60;;
3333;SDS011;1679;50.392;8.008;2023-02-11T03:07:23;49.33;;;28.87;;
3333;SDS011;1679;50.392;8.008;2023-02-11T03:12:41;51.87;;;29.03;;
3333;SDS011;1679;50.392;8.008;2023-02-11T03:15:08;48.57;;;29.43;;
3333;SDS011;1679;50.392;8.008;2023-02-11T03:17:36;52.93;;;28.90;;
3333;SDS011;1679;50.392;8.008;2023-02-11T03:20:05;46.20;;;28.33;;
3333;SDS011;1679;50.392;8.008;2023-02-11T03:22:38;46.70;;;28.20;;
3333;SDS011;1679;50.392;8.008;2023-02-11T03:25:08;48.10;;;28.90;;
3333;SDS011;1679;50.392;8.008;2023-02-11T03:27:49;51.60;;;29.17;;
3333;SDS011;1679;50.392;8.008;2023-02-11T03:30:24;45.40;;;27.37;;
3333;SDS011;1679;50.392;8.008;2023-02-11T03:32:55;48.43;;;29.17;;
3333;SDS011;1679;50.392;8.008;2023-02-11T03:35:27;43.93;;;26.67;;
3333;SDS011;1679;50.392;8.008;2023-02-11T03:38:04;43.60;;;24.97;;
3333;SDS011;1679;50.392;8.008;2023-02-11T03:40:37;47.90;;;28.07;;
3333;SDS011;1679;50.392;8.008;2023-02-11T03:43:08;47.97;;;29.37;;
3333;SDS011;1679;50.392;8.008;2023-02-11T03:45:41;44.77;;;27.37;;
3333;SDS011;1679;50.392;8.008;2023-02-11T03:48:10;46.23;;;27.50;;
3333;SDS011;1679;50.392;8.008;2023-02-11T03:50:46;49.90;;;29.13;;
3333;SDS011;1679;50.392;8.008;2023-02-11T03:53:13;47.30;;;26.50;;
3333;SDS011;1679;50.392;8.008;2023-02-11T03:55:39;44.20;;;26.67;;
3333;SDS011;1679;50.392;8.008;2023-02-11T03:58:07;48.63;;;29.03;;
3333;SDS011;1679;50.392;8.008;2023-02-11T04:00:34;47.43;;;26.97;;
3333;SDS011;1679;50.392;8.008;2023-02-11T04:03:03;45.83;;;27.97;;
3333;SDS011;1679;50.392;8.008;2023-02-11T04:05:29;56.47;;;30.13;;
3333;SDS011;1679;50.392;8.008;2023-02-11T04:07:55;52.63;;;28.47;;
3333;SDS011;1679;50.392;8.008;2023-02-11T04:10:20;55.33;;;29.60;;
3333;SDS011;1679;50.392;8.008;2023-02-11T04:12:46;50.87;;;28.97;;
3333;SDS011;1679;50.392;8.008;2023-02-11T04:15:11;52.23;;;29.47;;
3333;SDS011;1679;50.392;8.008;2023-02-11T04:17:37;46.73;;;28.37;;
3333;SDS011;1679;50.392;8.008;2023-02-11T04:20:03;52.70;;;28.10;;
3333;SDS011;1679;50.392;8.008;2023-02-11T04:22:29;49.83;;;28.47;;
3333;SDS011;1679;50.392;8.008;2023-02-11T04:24:54;42.20;;;28.07;;
3333;SDS011;1679;50.392;8.008;2023-02-11T04:27:20;52.43;;;29.40;;
3333;SDS011;1679;50.392;8.008;2023-02-11T04:29:45;47.50;;;27.73;;
3333;SDS011;1679;50.392;8.008;2023-02-11T04:32:11;44.93;;;28.30;;
3333;SDS011;1679;50.392;8.008;2023-02-11T04:34:36;46.27;;;29.33;;
3333;SDS011;1679;50.392;8.008;2023-02-11T04:37:02;46.00;;;27.93;;
3333;SDS011;1679;50.392;8.008;2023-02-11T04:39:28;55.37;;;28.40;;
3333;SDS011;1679;50.392;8.008;2023-02-11T04:41:53;47.00;;;28.60;;
3333;SDS011;1679;50.392;8.008;2023-02-11T04:44:19;46.80;;;27.10;;
3333;SDS011;1679;50.392;8.008;2023-02-11T04:46:44;49.07;;;28.83;;
3333;SDS011;1679;50.392;8.008;2023-02-11T04:49:11;51.73;;;30.80;;
3333;SDS011;1679;50.392;8.008;2023-02-11T04:51:38;55.50;;;31.20;;
3333;SDS011;1679;50.392;8.008;2023-02-11T04:54:03;52.90;;;29.57;;
3333;SDS011;1679;50.392;8.008;2023-02-11T04:56:29;49.40;;;28.17;;
3333;SDS011;1679;50.392;8.008;2023-02-11T04:58:54;50.83;;;28.80;;
3333;SDS011;1679;50.392;8.008;2023-02-11T05:01:20;52.13;;;28.43;;
3333;SDS011;1679;50.392;8.008;2023-02-11T05:03:46;48.03;;;28.70;;
3333;SDS011;1679;50.392;8.008;2023-02-11T05:06:11;47.37;;;28.00;;
3333;SDS011;1679;50.392;8.008;2023-02-11T05:08:37;50.63;;;29.87;;
3333;SDS011;1679;50.392;8.008;2023-02-11T05:11:02;49.10;;;29.10;;
3333;SDS011;1679;50.392;8.008;2023-02-11T05:13:28;49.37;;;28.53;;
3333;SDS011;1679;50.392;8.008;2023-02-11T05:15:54;41.43;;;26.40;;
3333;SDS011;1679;50.392;8.008;2023-02-11T05:18:20;49.00;;;28.30;;
3333;SDS011;1679;50.392;8.008;2023-02-11T05:20:46;45.90;;;28.53;;
3333;SDS011;1679;50.392;8.008;2023-02-11T05:23:11;49.53;;;30.07;;
3333;SDS011;1679;50.392;8.008;2023-02-11T05:25:37;51.70;;;28.47;;
3333;SDS011;1679;50.392;8.008;2023-02-11T05:28:03;46.23;;;28.27;;
3333;SDS011;1679;50.392;8.008;2023-02-11T05:30:30;45.60;;;26.43;;
3333;SDS011;1679;50.392;8.008;2023-02-11T05:32:56;52.43;;;28.87;;
3333;SDS011;1679;50.392;8.008;2023-02-11T05:35:21;47.37;;;27.90;;
3333;SDS011;1679;50.392;8.008;2023-02-11T05:37:47;56.10;;;29.87;;
3333;SDS011;1679;50.392;8.008;2023-02-11T05:40:13;55.00;;;30.87;;
3333;SDS011;1679;50.392;8.008;2023-02-11T05:42:39;51.53;;;30.20;;
3333;SDS011;1679;50.392;8.008;2023-02-11T05:45:05;54.60;;;30.60;;
3333;SDS011;1679;50.392;8.008;2023-02-11T05:47:30;51.70;;;30.70;;
3333;SDS011;1679;50.392;8.008;2023-02-11T05:49:56;50.90;;;28.97;;
3333;SDS011;1679;50.392;8.008;2023-02-11T05:52:22;48.03;;;28.97;;
3333;SDS011;1679;50.392;8.008;2023-02-11T05:54:47;53.73;;;29.83;;
3333;SDS011;1679;50.392;8.008;2023-02-11T05:57:13;56.17;;;29.93;;
3333;SDS011;1679;50.392;8.008;2023-02-11T05:59:39;57.60;;;30.43;;
3333;SDS011;1679;50.392;8.008;2023-02-11T06:02:05;50.20;;;29.57;;
3333;SDS011;1679;50.392;8.008;2023-02-11T06:04:32;53.23;;;30.80;;
3333;SDS011;1679;50.392;8.008;2023-02-11T06:06:58;53.10;;;29.47;;
3333;SDS011;1679;50.392;8.008;2023-02-11T06:09:23;51.40;;;30.07;;
3333;SDS011;1679;50.392;8.008;2023-02-11T06:11:49;53.93;;;29.27;;
3333;SDS011;1679;50.392;8.008;2023-02-11T06:14:14;56.27;;;31.13;;
3333;SDS011;1679;50.392;8.008;2023-02-11T06:16:40;57.27;;;32.37;;
3333;SDS011;1679;50.392;8.008;2023-02-11T06:19:05;55.40;;;32.20;;
3333;SDS011;1679;50.392;8.008;2023-02-11T06:21:32;59.77;;;32.70;;
3333;SDS011;1679;50.392;8.008;2023-02-11T06:23:58;51.20;;;29.07;;
3333;SDS011;1679;50.392;8.008;2023-02-11T06:26:23;54.60;;;30.60;;
3333;SDS011;1679;50.392;8.008;2023-02-11T06:28:49;58.63;;;32.70;;
3333;SDS011;1679;50.392;8.008;2023-02-11T06:31:14;53.00;;;30.63;;
3333;SDS011;1679;50.392;8.008;2023-02-11T06:33:41;54.77;;;31.50;;
3333;SDS011;1679;50.392;8.008;2023-02-11T06:36:12;56.10;;;31.13;;
3333;SDS011;1679;50.392;8.008;2023-02-11T06:38:40;54.10;;;32.57;;
3333;SDS011;1679;50.392;8.008;2023-02-11T06:41:07;60.40;;;33.80;;
3333;SDS011;1679;50.392;8.008;2023-02-11T06:43:34;61.57;;;33.13;;
3333;SDS011;1679;50.392;8.008;2023-02-11T06:45:59;62.90;;;32.87;;
3333;SDS011;1679;50.392;8.008;2023-02-11T06:48:25;58.87;;;33.23;;
3333;SDS011;1679;50.392;8.008;2023-02-11T06:50:50;55.00;;;31.60;;
3333;SDS011;1679;50.392;8.008;2023-02-11T06:53:16;55.30;;;33.30;;
3333;SDS011;1679;50.392;8.008;2023-02-11T06:55:41;54.90;;;30.67;;
3333;SDS011;1679;50.392;8.008;2023-02-11T06:58:08;56.00;;;31.77;;
3333;SDS011;1679;50.392;8.008;2023-02-11T07:00:34;69.47;;;31.13;;
3333;SDS011;1679;50.392;8.008;2023-02-11T07:03:00;46.40;;;28.00;;
3333;SDS011;1679;50.392;8.008;2023-02-11T07:05:26;53.90;;;31.20;;
3333;SDS011;1679;50.392;8.008;2023-02-11T07:07:51;57.93;;;31.50;;
3333;SDS011;1679;50.392;8.008;2023-02-11T07:10:17;55.43;;;33.83;;
3333;SDS011;1679;50.392;8.008;2023-02-11T07:12:43;52.10;;;31.67;;
3333;SDS011;1679;50.392;8.008;2023-02-11T07:15:08;55.00;;;31.47;;
3333;SDS011;1679;50.392;8.008;2023-02-11T07:17:34;58.10;;;31.60;;
3333;SDS011;1679;50.392;8.008;2023-02-11T07:20:00;53.17;;;30.33;;
3333;SDS011;1679;50.392;8.008;2023-02-11T07:22:26;51.20;;;32.10;;
3333;SDS011;1679;50.392;8.008;2023-02-11T07:24:51;48.17;;;28.40;;
3333;SDS011;1679;50.392;8.008;2023-02-11T07:27:17;49.20;;;32.10;;
3333;SDS011;1679;50.392;8.008;2023-02-11T07:29:42;56.50;;;33.97;;
3333;SDS011;1679;50.392;8.008;2023-02-11T07:32:09;54.63;;;32.67;;
3333;SDS011;1679;50.392;8.008;2023-02-11T07:34:35;57.83;;;34.50;;
3333;SDS011;1679;50.392;8.008;2023-02-11T07:37:01;57.23;;;31.67;;
3333;SDS011;1679;50.392;8.008;2023-02-11T07:39:26;50.90;;;32.43;;
3333;SDS011;1679;50.392;8.008;2023-02-11T07:41:53;54.73;;;32.43;;
3333;SDS011;1679;50.392;8.008;2023-02-11T07:44:19;50.73;;;31.57;;
3333;SDS011;1679;50.392;8.008;2023-02-11T07:46:44;56.90;;;32.43;;
3333;SDS011;1679;50.392;8.008;2023-02-11T07:49:12;54.47;;;32.40;;
3333;SDS011;1679;50.392;8.008;2023-02-11T07:51:37;55.80;;;34.20;;
3333;SDS011;1679;50.392;8.008;2023-02-11T07:54:03;60.87;;;35.07;;
3333;SDS011;1679;50.392;8.008;2023-02-11T07:56:29;55.90;;;33.77;;
3333;SDS011;1679;50.392;8.008;2023-02-11T07:58:55;58.70;;;35.43;;
3333;SDS011;1679;50.392;8.008;2023-02-11T08:01:24;50.00;;;31.17;;
3333;SDS011;1679;50.392;8.008;2023-02-11T08:03:52;55.97;;;32.57;;
3333;SDS011;1679;50.392;8.008;2023-02-11T08:06:20;58.23;;;33.60;;
3333;SDS011;1679;50.392;8.008;2023-02-11T08:08:47;55.13;;;33.43;;
3333;SDS011;1679;50.392;8.008;2023-02-11T08:11:17;48.40;;;29.97;;
3333;SDS011;1679;50.392;8.008;2023-02-11T08:13:44;55.30;;;33.20;;
3333;SDS011;1679;50.392;8.008;2023-02-11T08:16:32;48.70;;;30.40;;
3333;SDS011;1679;50.392;8.008;2023-02-11T08:18:58;52.73;;;31.53;;
3333;SDS011;1679;50.392;8.008;2023-02-11T08:21:25;52.63;;;32.40;;
3333;SDS011;1679;50.392;8.008;2023-02-11T08:23:52;47.30;;;29.37;;
3333;SDS011;1679;50.392;8.008;2023-02-11T08:26:19;51.10;;;30.13;;
3333;SDS011;1679;50.392;8.008;2023-02-11T08:28:47;47.10;;;29.50;;
3333;SDS011;1679;50.392;8.008;2023-02-11T08:31:15;50.53;;;31.57;;
3333;SDS011;1679;50.392;8.008;2023-02-11T08:33:42;50.27;;;32.50;;
3333;SDS011;1679;50.392;8.008;2023-02-11T08:36:09;54.43;;;31.27;;
3333;SDS011;1679;50.392;8.008;2023-02-11T08:38:36;54.10;;;30.70;;
3333;SDS011;1679;50.392;8.008;2023-02-11T08:41:01;51.37;;;28.20;;
3333;SDS011;1679;50.392;8.008;2023-02-11T08:43:27;50.07;;;31.20;;
3333;SDS011;1679;50.392;8.008;2023-02-11T08:45:53;54.13;;;30.97;;
3333;SDS011;1679;50.392;8.008;2023-02-11T08:48:18;73.60;;;44.00;;
3333;SDS011;1679;50.392;8.008;2023-02-11T08:50:44;126.53;;;71.60;;
3333;SDS011;1679;50.392;8.008;2023-02-11T08:53:09;104.17;;;62.47;;
3333;SDS011;1679;50.392;8.008;2023-02-11T08:55:35;55.87;;;34.73;;
3333;SDS011;1679;50.392;8.008;2023-02-11T08:58:00;57.37;;;32.20;;
3333;SDS011;1679;50.392;8.008;2023-02-11T09:00:26;50.10;;;30.70;;
3333;SDS011;1679;50.392;8.008;2023-02-11T09:02:52;54.73;;;30.50;;
3333;SDS011;1679;50.392;8.008;2023-02-11T09:05:17;44.40;;;28.30;;
3333;SDS011;1679;50.392;8.008;2023-02-11T09:07:43;45.47;;;29.03;;
3333;SDS011;1679;50.392;8.008;2023-02-11T09:10:08;46.83;;;29.57;;
3333;SDS011;1679;50.392;8.008;2023-02-11T09:12:34;47.87;;;29.60;;
3333;SDS011;1679;50.392;8.008;2023-02-11T09:14:59;46.67;;;28.20;;
3333;SDS011;1679;50.392;8.008;2023-02-11T09:17:25;45.30;;;28.00;;
3333;SDS011;1679;50.392;8.008;2023-02-11T09:19:50;43.37;;;28.77;;
3333;SDS011;1679;50.392;8.008;2023-02-11T09:22:16;54.20;;;34.00;;
3333;SDS011;1679;50.392;8.008;2023-02-11T09:24:41;56.40;;;34.10;;
3333;SDS011;1679;50.392;8.008;2023-02-11T09:27:07;46.93;;;31.47;;
3333;SDS011;1679;50.392;8.008;2023-02-11T09:29:32;54.50;;;32.83;;
3333;SDS011;1679;50.392;8.008;2023-02-11T09:31:58;48.57;;;31.70;;
3333;SDS011;1679;50.392;8.008;2023-02-11T09:34:23;47.50;;;31.43;;
3333;SDS011;1679;50.392;8.008;2023-02-11T09:36:49;51.10;;;31.17;;
3333;SDS011;1679;50.392;8.008;2023-02-11T09:39:15;53.90;;;33.90;;
3333;SDS011;1679;50.392;8.008;2023-02-11T09:42:02;53.07;;;32.50;;
3333;SDS011;1679;50.392;8.008;2023-02-11T09:44:37;54.97;;;34.50;;
3333;SDS011;1679;50.392;8.008;2023-02-11T09:47:04;51.97;;;32.50;;
3333;SDS011;1679;50.392;8.008;2023-02-11T09:52:26;56.90;;;35.70;;
3333;SDS011;1679;50.392;8.008;2023-02-11T09:55:02;60.20;;;36.97;;
3333;SDS011;1679;50.392;8.008;2023-02-11T09:57:33;58.00;;;38.53;;
3333;SDS011;1679;50.392;8.008;2023-02-11T10:00:00;62.33;;;37.67;;
3333;SDS011;1679;50.392;8.008;2023-02-11T10:02:54;63.50;;;38.10;;
3333;SDS011;1679;50.392;8.008;2023-02-11T10:05:30;66.03;;;39.27;;
3333;SDS011;1679;50.392;8.008;2023-02-11T10:08:44;65.60;;;34.00;;
3333;SDS011;1679;50.392;8.008;2023-02-11T10:11:29;52.07;;;29.20;;
3333;SDS011;1679;50.392;8.008;2023-02-11T10:14:24;54.90;;;30.23;;
3333;SDS011;1679;50.392;8.008;2023-02-11T10:22:59;45.17;;;27.40;;
3333;SDS011;1679;50.392;8.008;2023-02-11T10:25:36;47.63;;;27.10;;
3333;SDS011;1679;50.392;8.008;2023-02-11T10:28:11;47.27;;;28.93;;
3333;SDS011;1679;50.392;8.008;2023-02-11T10:31:05;46.00;;;26.27;;
3333;SDS011;1679;50.392;8.008;2023-02-11T10:34:10;47.70;;;27.27;;
3333;SDS011;1679;50.392;8.008;2023-02-11T10:36:39;54.47;;;32.20;;
3333;SDS011;1679;50.392;8.008;2023-02-11T10:39:12;48.93;;;29.53;;
3333;SDS011;1679;50.392;8.008;2023-02-11T10:41:53;44.20;;;27.63;;
3333;SDS011;1679;50.392;8.008;2023-02-11T10:44:27;46.97;;;26.87;;
3333;SDS011;1679;50.392;8.008;2023-02-11T10:47:04;39.63;;;25.70;;
3333;SDS011;1679;50.392;8.008;2023-02-11T10:50:03;47.83;;;27.37;;
3333;SDS011;1679;50.392;8.008;2023-02-11T10:52:46;43.43;;;27.00;;
3333;SDS011;1679;50.392;8.008;2023-02-11T10:55:18;47.90;;;27.47;;
3333;SDS011;1679;50.392;8.008;2023-02-11T10:57:49;43.70;;;26.17;;
3333;SDS011;1679;50.392;8.008;2023-02-11T11:00:22;49.57;;;27.10;;
3333;SDS011;1679;50.392;8.008;2023-02-11T11:03:02;46.83;;;27.87;;
3333;SDS011;1679;50.392;8.008;2023-02-11T11:05:47;45.83;;;26.83;;
3333;SDS011;1679;50.392;8.008;2023-02-11T11:08:12;45.40;;;26.23;;
3333;SDS011;1679;50.392;8.008;2023-02-11T11:10:40;45.20;;;28.07;;
3333;SDS011;1679;50.392;8.008;2023-02-11T11:18:38;38.93;;;24.90;;
3333;SDS011;1679;50.392;8.008;2023-02-11T11:21:05;50.03;;;25.73;;
3333;SDS011;1679;50.392;8.008;2023-02-11T11:23:37;43.57;;;27.90;;
3333;SDS011;1679;50.392;8.008;2023-02-11T11:26:08;44.17;;;25.33;;
3333;SDS011;1679;50.392;8.008;2023-02-11T11:31:14;43.97;;;27.03;;
3333;SDS011;1679;50.392;8.008;2023-02-11T11:33:43;40.40;;;23.53;;
3333;SDS011;1679;50.392;8.008;2023-02-11T11:36:12;41.53;;;25.77;;
3333;SDS011;1679;50.392;8.008;2023-02-11T11:38:57;39.37;;;23.10;;
3333;SDS011;1679;50.392;8.008;2023-02-11T11:41:30;42.60;;;24.77;;
3333;SDS011;1679;50.392;8.008;2023-02-11T11:44:21;38.87;;;24.90;;
3333;SDS011;1679;50.392;8.008;2023-02-11T11:52:42;66.17;;;40.47;;
3333;SDS011;1679;50.392;8.008;2023-02-11T11:55:33;44.10;;;26.60;;
3333;SDS011;1679;50.392;8.008;2023-02-11T11:58:24;157.37;;;74.97;;
3333;SDS011;1679;50.392;8.008;2023-02-11T12:12:37;38.23;;;23.63;;
3333;SDS011;1679;50.392;8.008;2023-02-11T12:17:54;36.03;;;22.33;;
3333;SDS011;1679;50.392;8.008;2023-02-11T12:23:19;38.30;;;23.73;;
3333;SDS011;1679;50.392;8.008;2023-02-11T12:28:43;37.10;;;22.07;;
3333;SDS011;1679;50.392;8.008;2023-02-11T12:34:34;34.93;;;21.70;;
3333;SDS011;1679;50.392;8.008;2023-02-11T12:40:17;35.37;;;20.80;;
3333;SDS011;1679;50.392;8.008;2023-02-11T12:45:51;37.87;;;23.23;;
3333;SDS011;1679;50.392;8.008;2023-02-11T12:48:38;37.00;;;25.50;;
3333;SDS011;1679;50.392;8.008;2023-02-11T12:59:10;46.40;;;34.07;;
3333;SDS011;1679;50.392;8.008;2023-02-11T13:01:41;33.83;;;22.53;;
3333;SDS011;1679;50.392;8.008;2023-02-11T13:04:23;32.30;;;21.67;;
3333;SDS011;1679;50.392;8.008;2023-02-11T13:07:02;36.73;;;21.77;;
3333;SDS011;1679;50.392;8.008;2023-02-11T13:09:54;34.70;;;21.63;;
3333;SDS011;1679;50.392;8.008;2023-02-11T13:12:38;39.87;;;27.93;;
3333;SDS011;1679;50.392;8.008;2023-02-11T13:15:30;42.17;;;28.17;;
3333;SDS011;1679;50.392;8.008;2023-02-11T13:23:20;35.27;;;22.80;;
3333;SDS011;1679;50.392;8.008;2023-02-11T13:28:41;32.97;;;21.07;;
3333;SDS011;1679;50.392;8.008;2023-02-11T13:31:12;35.13;;;20.53;;
3333;SDS011;1679;50.392;8.008;2023-02-11T13:33:40;31.23;;;19.90;;
3333;SDS011;1679;50.392;8.008;2023-02-11T13:38:34;29.77;;;20.57;;
3333;SDS011;1679;50.392;8.008;2023-02-11T13:41:04;31.00;;;20.00;;
3333;SDS011;1679;50.392;8.008;2023-02-11T13:43:31;33.37;;;22.60;;
3333;SDS011;1679;50.392;8.008;2023-02-11T13:46:00;33.43;;;20.07;;
3333;SDS011;1679;50.392;8.008;2023-02-11T13:48:31;29.27;;;19.60;;
3333;SDS011;1679;50.392;8.008;2023-02-11T13:51:04;29.60;;;20.00;;
3333;SDS011;1679;50.392;8.008;2023-02-11T13:53:52;32.37;;;21.13;;
3333;SDS011;1679;50.392;8.008;2023-02-11T14:02:33;32.00;;;20.47;;
3333;SDS011;1679;50.392;8.008;2023-02-11T14:13:35;35.07;;;22.40;;
3333;SDS011;1679;50.392;8.008;2023-02-11T14:16:17;26.20;;;18.10;;
3333;SDS011;1679;50.392;8.008;2023-02-11T14:24:38;28.87;;;19.17;;
3333;SDS011;1679;50.392;8.008;2023-02-11T14:26:52;30.10;;;20.27;;
3333;SDS011;1679;50.392;8.008;2023-02-11T14:35:35;31.87;;;21.40;;
3333;SDS011;1679;50.392;8.008;2023-02-11T14:38:22;31.40;;;22.30;;
3333;SDS011;1679;50.392;8.008;2023-02-11T14:41:19;28.30;;;19.60;;
3333;SDS011;1679;50.392;8.008;2023-02-11T14:43:55;35.70;;;25.30;;
3333;SDS011;1679;50.392;8.008;2023-02-11T14:46:23;37.60;;;27.00;;
3333;SDS011;1679;50.392;8.008;2023-02-11T14:49:00;30.10;;;19.60;;
3333;SDS011;1679;50.392;8.008;2023-02-11T14:54:20;25.73;;;17.70;;
3333;SDS011;1679;50.392;8.008;2023-02-11T14:57:11;34.80;;;18.20;;
3333;SDS011;1679;50.392;8.008;2023-02-11T14:59:39;27.77;;;17.43;;
3333;SDS011;1679;50.392;8.008;2023-02-11T15:02:19;25.80;;;17.37;;
3333;SDS011;1679;50.392;8.008;2023-02-11T15:04:47;32.60;;;18.23;;
3333;SDS011;1679;50.392;8.008;2023-02-11T15:07:13;31.70;;;18.97;;
3333;SDS011;1679;50.392;8.008;2023-02-11T15:09:43;27.07;;;17.40;;
3333;SDS011;1679;50.392;8.008;2023-02-11T15:12:17;25.90;;;17.70;;
3333;SDS011;1679;50.392;8.008;2023-02-11T15:14:55;27.90;;;19.53;;
3333;SDS011;1679;50.392;8.008;2023-02-11T15:17:23;25.13;;;17.60;;
3333;SDS011;1679;50.392;8.008;2023-02-11T15:19:52;26.73;;;18.00;;
3333;SDS011;1679;50.392;8.008;2023-02-11T15:22:21;29.07;;;19.63;;
3333;SDS011;1679;50.392;8.008;2023-02-11T15:27:27;27.07;;;18.43;;
3333;SDS011;1679;50.392;8.008;2023-02-11T15:30:07;24.27;;;17.43;;
3333;SDS011;1679;50.392;8.008;2023-02-11T15:32:51;39.60;;;26.53;;
3333;SDS011;1679;50.392;8.008;2023-02-11T15:35:31;59.33;;;31.47;;
3333;SDS011;1679;50.392;8.008;2023-02-11T15:37:59;65.03;;;34.47;;
3333;SDS011;1679;50.392;8.008;2023-02-11T15:40:26;33.27;;;21.17;;
3333;SDS011;1679;50.392;8.008;2023-02-11T15:45:35;42.67;;;26.83;;
3333;SDS011;1679;50.392;8.008;2023-02-11T15:48:22;29.07;;;20.93;;
3333;SDS011;1679;50.392;8.008;2023-02-11T15:50:57;47.23;;;30.40;;
3333;SDS011;1679;50.392;8.008;2023-02-11T15:53:30;72.33;;;44.10;;
3333;SDS011;1679;50.392;8.008;2023-02-11T15:56:09;62.03;;;40.80;;
3333;SDS011;1679;50.392;8.008;2023-02-11T15:58:39;64.47;;;42.90;;
3333;SDS011;1679;50.392;8.008;2023-02-11T16:01:06;65.80;;;42.93;;
3333;SDS011;1679;50.392;8.008;2023-02-11T16:03:33;63.77;;;38.83;;
3333;SDS011;1679;50.392;8.008;2023-02-11T16:09:00;61.23;;;38.17;;
3333;SDS011;1679;50.392;8.008;2023-02-11T16:11:31;60.00;;;36.80;;
3333;SDS011;1679;50.392;8.008;2023-02-11T16:13:58;69.07;;;38.10;;
3333;SDS011;1679;50.392;8.008;2023-02-11T16:16:26;61.00;;;34.67;;
3333;SDS011;1679;50.392;8.008;2023-02-11T16:18:56;57.50;;;34.90;;
3333;SDS011;1679;50.392;8.008;2023-02-11T16:21:28;59.03;;;36.97;;
3333;SDS011;1679;50.392;8.008;2023-02-11T16:24:19;56.17;;;34.40;;
3333;SDS011;1679;50.392;8.008;2023-02-11T16:26:52;61.07;;;33.63;;
3333;SDS011;1679;50.392;8.008;2023-02-11T16:29:27;49.93;;;28.50;;
3333;SDS011;1679;50.392;8.008;2023-02-11T16:34:42;50.80;;;32.03;;
3333;SDS011;1679;50.392;8.008;2023-02-11T16:37:09;47.00;;;28.50;;
3333;SDS011;1679;50.392;8.008;2023-02-11T16:39:35;50.17;;;30.63;;
3333;SDS011;1679;50.392;8.008;2023-02-11T16:42:00;53.77;;;32.87;;
3333;SDS011;1679;50.392;8.008;2023-02-11T16:44:26;57.87;;;31.40;;
3333;SDS011;1679;50.392;8.008;2023-02-11T16:46:52;46.30;;;30.67;;
3333;SDS011;1679;50.392;8.008;2023-02-11T16:49:23;62.87;;;40.23;;
3333;SDS011;1679;50.392;8.008;2023-02-11T16:52:00;68.57;;;43.60;;
3333;SDS011;1679;50.392;8.008;2023-02-11T16:54:30;71.60;;;46.30;;
3333;SDS011;1679;50.392;8.008;2023-02-11T16:56:55;56.20;;;37.10;;
3333;SDS011;1679;50.392;8.008;2023-02-11T16:59:23;59.47;;;35.70;;
3333;SDS011;1679;50.392;8.008;2023-02-11T17:01:48;56.67;;;35.07;;
3333;SDS011;1679;50.392;8.008;2023-02-11T17:04:17;55.10;;;35.13;;
3333;SDS011;1679;50.392;8.008;2023-02-11T17:06:52;52.37;;;33.37;;
3333;SDS011;1679;50.392;8.008;2023-02-11T17:09:22;51.90;;;32.10;;
3333;SDS011;1679;50.392;8.008;2023-02-11T17:11:49;51.70;;;33.20;;
3333;SDS011;1679;50.392;8.008;2023-02-11T17:14:14;50.03;;;30.97;;
3333;SDS011;1679;50.392;8.008;2023-02-11T17:16:40;43.90;;;30.20;;
3333;SDS011;1679;50.392;8.008;2023-02-11T17:19:08;46.10;;;29.83;;
3333;SDS011;1679;50.392;8.008;2023-02-11T17:21:36;46.30;;;29.57;;
3333;SDS011;1679;50.392;8.008;2023-02-11T17:24:01;46.13;;;29.73;;
3333;SDS011;1679;50.392;8.008;2023-02-11T17:26:27;41.60;;;27.27;;
3333;SDS011;1679;50.392;8.008;2023-02-11T17:28:52;48.20;;;31.33;;
3333;SDS011;1679;50.392;8.008;2023-02-11T17:31:18;54.23;;;34.30;;